createdAt,value
2019-05-03T00:01:02.385Z,10.5655
2019-05-03T00:02:04.291Z,10.5554
2019-05-03T00:03:07.316Z,10.5957
2019-05-03T00:04:11.936Z,10.6259
2019-05-03T00:05:15.281Z,10.6662
2019-05-03T00:06:18.325Z,10.6863
2019-05-03T00:07:22.323Z,10.7166
2019-05-03T00:08:24.310Z,10.7367
2019-05-03T00:09:27.284Z,10.7468
2019-05-03T00:10:31.790Z,10.7568
2019-05-03T00:11:35.292Z,10.7568
2019-05-03T00:12:37.345Z,10.7770
2019-05-03T00:13:41.912Z,10.8072
2019-05-03T00:14:45.299Z,10.8072
2019-05-03T00:15:48.271Z,10.8374
2019-05-03T00:16:52.230Z,10.8173
2019-05-03T00:17:55.367Z,10.8072
2019-05-03T00:19:00.953Z,10.7870
2019-05-03T00:20:04.278Z,10.7870
2019-05-03T00:21:07.287Z,10.7870
2019-05-03T00:22:12.202Z,10.7568
2019-05-03T00:23:15.316Z,10.7770
2019-05-03T00:24:18.291Z,10.7770
2019-05-03T00:25:22.125Z,10.7770
2019-05-03T00:26:24.296Z,10.7770
2019-05-03T00:27:27.302Z,10.7468
2019-05-03T00:28:32.071Z,10.7166
2019-05-03T00:29:35.283Z,10.7166
2019-05-03T00:30:38.296Z,10.7065
2019-05-03T00:31:42.322Z,10.7065
2019-05-03T00:32:45.269Z,10.6763
2019-05-03T00:33:48.337Z,10.6763
2019-05-03T00:34:52.386Z,10.6662
2019-05-03T00:35:55.286Z,10.6763
2019-05-03T00:36:58.263Z,10.6763
2019-05-03T00:38:02.104Z,10.7065
2019-05-03T00:39:07.319Z,10.7065
2019-05-03T00:40:12.138Z,10.6863
2019-05-03T00:41:14.280Z,10.7367
2019-05-03T00:42:16.619Z,10.7166
2019-05-03T00:43:19.301Z,10.7065
2019-05-03T00:44:22.303Z,10.7166
2019-05-03T00:45:25.256Z,10.7367
2019-05-03T00:46:28.301Z,10.7468
2019-05-03T00:47:32.853Z,10.7568
2019-05-03T00:48:36.290Z,10.7568
2019-05-03T00:49:39.342Z,10.7568
2019-05-03T00:50:42.595Z,10.7367
2019-05-03T00:51:45.305Z,10.7166
2019-05-03T00:52:48.283Z,10.6763
2019-05-03T00:53:53.071Z,10.6763
2019-05-03T00:54:56.339Z,10.6360
2019-05-03T00:55:59.295Z,10.6259
2019-05-03T00:57:02.704Z,10.6058
2019-05-03T00:58:06.297Z,10.6058
2019-05-03T00:59:09.340Z,10.6360
2019-05-03T01:00:12.411Z,10.6662
2019-05-03T01:01:15.308Z,10.6662
2019-05-03T01:02:18.292Z,10.6763
2019-05-03T01:03:21.929Z,10.6763
2019-05-03T01:04:25.298Z,10.6360
2019-05-03T01:05:28.296Z,10.6058
2019-05-03T01:06:31.818Z,10.5655
2019-05-03T01:07:35.270Z,10.5554
2019-05-03T01:08:38.313Z,10.5655
2019-05-03T01:09:42.391Z,10.5655
2019-05-03T01:10:45.350Z,10.5957
2019-05-03T01:11:48.275Z,10.6058
2019-05-03T01:12:52.297Z,10.6360
2019-05-03T01:13:55.293Z,10.6360
2019-05-03T01:14:58.311Z,10.6662
2019-05-03T01:16:02.750Z,10.6259
2019-05-03T01:17:06.276Z,10.6259
2019-05-03T01:18:09.306Z,10.6360
2019-05-03T01:19:12.280Z,10.6763
2019-05-03T01:20:15.320Z,10.6763
2019-05-03T01:21:18.325Z,10.6863
2019-05-03T01:22:22.679Z,10.7166
2019-05-03T01:23:25.262Z,10.7166
2019-05-03T01:24:28.299Z,10.6863
2019-05-03T01:25:35.137Z,10.6662
2019-05-03T01:26:38.317Z,10.6360
2019-05-03T01:27:42.759Z,10.6058
2019-05-03T01:28:46.275Z,10.5957
2019-05-03T01:29:49.299Z,10.5957
2019-05-03T01:30:52.292Z,10.5856
2019-05-03T01:31:55.336Z,10.5957
2019-05-03T01:32:58.280Z,10.6058
2019-05-03T01:34:02.362Z,10.6360
2019-05-03T01:35:05.300Z,10.6662
2019-05-03T01:36:08.304Z,10.6763
2019-05-03T01:37:11.955Z,10.6863
2019-05-03T01:38:15.275Z,10.7166
2019-05-03T01:39:18.392Z,10.7166
2019-05-03T01:40:22.045Z,10.7166
2019-05-03T01:41:25.321Z,10.6863
2019-05-03T01:42:28.310Z,10.6863
2019-05-03T01:43:31.728Z,10.7065
2019-05-03T01:44:35.296Z,10.7065
2019-05-03T01:45:38.273Z,10.7065
2019-05-03T01:46:42.180Z,10.7065
2019-05-03T01:47:45.299Z,10.6360
2019-05-03T01:48:48.295Z,10.5856
2019-05-03T01:49:51.957Z,10.5252
2019-05-03T01:50:55.295Z,10.4446
2019-05-03T01:51:58.274Z,10.3741
2019-05-03T01:53:01.944Z,10.3741
2019-05-03T01:54:05.308Z,10.3439
2019-05-03T01:55:08.272Z,10.3339
2019-05-03T01:56:11.831Z,10.2835
2019-05-03T01:57:15.284Z,10.2634
2019-05-03T01:58:18.359Z,10.2634
2019-05-03T01:59:22.695Z,10.2332
2019-05-03T02:00:25.319Z,10.1727
2019-05-03T02:01:28.270Z,10.1324
2019-05-03T02:02:32.400Z,10.1224
2019-05-03T02:03:35.308Z,10.0922
2019-05-03T02:04:38.284Z,10.0720
2019-05-03T02:05:40.296Z,10.0922
2019-05-03T02:06:43.277Z,10.1324
2019-05-03T02:07:48.537Z,10.1526
2019-05-03T02:08:52.194Z,10.1526
2019-05-03T02:09:55.296Z,10.1929
2019-05-03T02:10:58.274Z,10.2332
2019-05-03T02:12:02.159Z,10.2332
2019-05-03T02:13:05.266Z,10.2634
2019-05-03T02:14:08.286Z,10.2634
2019-05-03T02:15:11.816Z,10.2332
2019-05-03T02:16:15.288Z,10.1929
2019-05-03T02:17:18.312Z,10.1727
2019-05-03T02:18:22.339Z,10.1627
2019-05-03T02:19:25.329Z,10.1627
2019-05-03T02:20:28.286Z,10.1929
2019-05-03T02:21:32.227Z,10.1727
2019-05-03T02:22:35.287Z,10.1526
2019-05-03T02:23:37.269Z,10.1324
2019-05-03T02:24:42.158Z,10.0922
2019-05-03T02:25:55.527Z,10.0418
2019-05-03T02:26:53.283Z,10.0418
2019-05-03T02:27:56.279Z,10.0418
2019-05-03T02:28:59.332Z,10.0418
2019-05-03T02:30:03.077Z,10.0519
2019-05-03T02:31:06.294Z,10.0922
2019-05-03T02:32:09.271Z,10.1022
2019-05-03T02:33:13.472Z,10.0720
2019-05-03T02:34:15.330Z,10.0720
2019-05-03T02:35:18.323Z,10.0519
2019-05-03T02:36:23.174Z,10.0217
2019-05-03T02:37:26.260Z,9.9915
2019-05-03T02:38:29.280Z,9.9713
2019-05-03T02:39:33.510Z,9.9713
2019-05-03T02:40:36.299Z,9.9713
2019-05-03T02:41:39.285Z,9.9814
2019-05-03T02:42:42.307Z,9.9915
2019-05-03T02:43:45.492Z,10.0418
2019-05-03T02:44:48.345Z,10.0418
2019-05-03T02:45:51.294Z,10.0418
2019-05-03T02:46:56.262Z,10.0519
2019-05-03T02:47:59.294Z,10.0418
2019-05-03T02:49:06.174Z,10.0418
2019-05-03T02:50:09.330Z,10.0720
2019-05-03T02:51:12.294Z,10.0720
2019-05-03T02:52:15.308Z,10.0519
2019-05-03T02:53:17.296Z,9.9915
2019-05-03T02:54:20.286Z,9.9411
2019-05-03T02:55:25.780Z,9.9210
2019-05-03T02:56:28.324Z,9.9109
2019-05-03T02:57:31.313Z,9.8907
2019-05-03T02:58:35.799Z,9.8907
2019-05-03T02:59:39.316Z,9.8706
2019-05-03T03:00:45.336Z,9.8303
2019-05-03T03:01:48.339Z,9.8303
2019-05-03T03:02:51.297Z,9.8303
2019-05-03T03:03:56.000Z,9.8303
2019-05-03T03:04:59.295Z,9.8706
2019-05-03T03:06:02.291Z,9.8605
2019-05-03T03:07:05.852Z,9.8404
2019-05-03T03:08:09.259Z,9.8404
2019-05-03T03:09:12.316Z,9.8404
2019-05-03T03:10:16.154Z,9.8404
2019-05-03T03:11:19.334Z,9.8706
2019-05-03T03:12:22.285Z,9.8706
2019-05-03T03:13:25.529Z,9.8907
2019-05-03T03:14:28.295Z,9.9210
2019-05-03T03:15:31.305Z,9.9411
2019-05-03T03:16:36.156Z,9.9411
2019-05-03T03:17:39.282Z,9.9713
2019-05-03T03:18:45.374Z,9.9814
2019-05-03T03:19:48.267Z,10.0116
2019-05-03T03:20:51.298Z,10.0217
2019-05-03T03:21:56.266Z,10.0418
2019-05-03T03:22:59.281Z,10.0217
2019-05-03T03:24:02.289Z,10.0217
2019-05-03T03:25:05.507Z,10.0116
2019-05-03T03:26:08.274Z,10.0217
2019-05-03T03:27:11.342Z,9.9915
2019-05-03T03:28:15.837Z,9.9915
2019-05-03T03:29:19.306Z,9.9915
2019-05-03T03:30:22.316Z,9.9814
2019-05-03T03:31:28.021Z,9.9512
2019-05-03T03:32:32.352Z,9.9210
2019-05-03T03:33:40.141Z,9.8907
2019-05-03T03:34:54.368Z,9.8706
2019-05-03T03:35:51.283Z,9.8404
2019-05-03T03:37:00.855Z,9.8303
2019-05-03T03:38:02.325Z,9.8203
2019-05-03T03:39:06.031Z,9.8203
2019-05-03T03:40:09.347Z,9.8001
2019-05-03T03:41:12.278Z,9.8001
2019-05-03T03:42:16.173Z,9.7900
2019-05-03T03:43:19.310Z,9.7598
2019-05-03T03:44:21.271Z,9.6793
2019-05-03T03:45:25.398Z,9.6088
2019-05-03T03:46:31.864Z,9.6088
2019-05-03T03:47:35.813Z,9.5886
2019-05-03T03:48:39.315Z,9.5886
2019-05-03T03:49:42.288Z,9.6088
2019-05-03T03:50:45.693Z,9.5483
2019-05-03T03:51:49.299Z,9.5081
2019-05-03T03:52:52.259Z,9.4980
2019-05-03T03:53:55.676Z,9.5383
2019-05-03T03:54:59.327Z,9.5081
2019-05-03T03:56:02.280Z,9.4980
2019-05-03T03:57:08.062Z,9.5081
2019-05-03T03:58:11.297Z,9.5383
2019-05-03T03:59:15.393Z,9.5786
2019-05-03T04:00:18.345Z,9.5786
2019-05-03T04:01:21.279Z,9.6088
2019-05-03T04:02:26.439Z,9.6188
2019-05-03T04:03:29.256Z,9.6390
2019-05-03T04:04:32.345Z,9.6390
2019-05-03T04:05:35.763Z,9.6088
2019-05-03T04:06:38.302Z,9.5584
2019-05-03T04:07:41.251Z,9.5081
2019-05-03T04:08:45.311Z,9.4577
2019-05-03T04:09:48.344Z,9.4275
2019-05-03T04:10:51.300Z,9.3671
2019-05-03T04:11:56.615Z,9.3570
2019-05-03T04:13:00.285Z,9.3570
2019-05-03T04:14:05.403Z,9.3369
2019-05-03T04:15:08.328Z,9.3570
2019-05-03T04:16:11.272Z,9.3167
2019-05-03T04:17:15.117Z,9.3167
2019-05-03T04:18:18.297Z,9.2764
2019-05-03T04:19:21.337Z,9.2865
2019-05-03T04:20:25.751Z,9.2563
2019-05-03T04:21:29.325Z,9.2462
2019-05-03T04:22:32.324Z,9.2462
2019-05-03T04:23:35.834Z,9.2563
2019-05-03T04:24:39.264Z,9.3066
2019-05-03T04:25:41.316Z,9.3570
2019-05-03T04:26:45.358Z,9.3872
2019-05-03T04:27:48.298Z,9.4073
2019-05-03T04:28:51.297Z,9.4376
2019-05-03T04:29:55.576Z,9.4778
2019-05-03T04:30:57.449Z,9.5383
2019-05-03T04:32:00.324Z,9.5584
2019-05-03T04:33:05.992Z,9.5786
2019-05-03T04:34:09.282Z,9.5786
2019-05-03T04:35:12.345Z,9.5886
2019-05-03T04:36:15.939Z,9.6088
2019-05-03T04:37:21.316Z,9.6188
2019-05-03T04:38:25.661Z,9.6490
2019-05-03T04:39:29.306Z,9.6591
2019-05-03T04:40:32.303Z,9.6793
2019-05-03T04:41:35.719Z,9.7195
2019-05-03T04:42:39.275Z,9.7296
2019-05-03T04:43:42.319Z,9.7397
2019-05-03T04:44:45.803Z,9.7699
2019-05-03T04:45:49.279Z,9.8001
2019-05-03T04:46:55.083Z,9.8001
2019-05-03T04:48:00.308Z,9.8001
2019-05-03T04:49:05.521Z,9.8001
2019-05-03T04:50:09.301Z,9.8001
2019-05-03T04:51:12.300Z,9.8203
2019-05-03T04:52:16.486Z,9.8203
2019-05-03T04:53:19.278Z,9.8001
2019-05-03T04:54:25.229Z,9.8001
2019-05-03T04:55:28.343Z,9.7900
2019-05-03T04:56:31.296Z,9.8203
2019-05-03T04:57:40.429Z,9.8605
2019-05-03T04:58:42.278Z,9.8404
2019-05-03T04:59:45.375Z,9.8303
2019-05-03T05:00:48.294Z,9.8303
2019-05-03T05:01:51.305Z,9.8303
2019-05-03T05:02:55.208Z,9.8303
2019-05-03T05:03:58.310Z,9.8203
2019-05-03T05:05:01.320Z,9.8303
2019-05-03T05:06:06.326Z,9.8404
2019-05-03T05:07:09.331Z,9.8605
2019-05-03T05:08:12.325Z,9.8605
2019-05-03T05:09:15.681Z,9.8303
2019-05-03T05:10:18.244Z,9.8404
2019-05-03T05:11:26.098Z,9.8706
2019-05-03T05:12:29.304Z,9.8706
2019-05-03T05:13:32.327Z,9.8706
2019-05-03T05:14:35.548Z,9.8706
2019-05-03T05:15:38.287Z,9.8404
2019-05-03T05:16:41.309Z,9.8303
2019-05-03T05:17:45.933Z,9.8303
2019-05-03T05:18:49.340Z,9.8203
2019-05-03T05:19:52.302Z,9.8303
2019-05-03T05:20:55.558Z,9.8706
2019-05-03T05:21:58.301Z,9.8907
2019-05-03T05:23:01.298Z,9.9109
2019-05-03T05:24:05.585Z,9.9411
2019-05-03T05:25:09.319Z,9.9512
2019-05-03T05:26:14.331Z,9.9713
2019-05-03T05:27:17.292Z,9.9814
2019-05-03T05:28:20.306Z,9.9814
2019-05-03T05:29:25.231Z,9.9512
2019-05-03T05:30:28.303Z,9.9512
2019-05-03T05:31:31.324Z,9.9411
2019-05-03T05:32:34.962Z,9.9109
2019-05-03T05:33:38.302Z,9.8907
2019-05-03T05:34:41.334Z,9.9109
2019-05-03T05:35:44.387Z,9.9210
2019-05-03T05:36:47.302Z,9.9411
2019-05-03T05:37:50.323Z,9.9411
2019-05-03T05:38:55.176Z,9.9814
2019-05-03T05:39:58.314Z,10.0116
2019-05-03T05:41:01.282Z,10.0418
2019-05-03T05:42:04.562Z,10.0418
2019-05-03T05:43:08.302Z,10.0922
2019-05-03T05:44:11.323Z,10.1022
2019-05-03T05:45:15.326Z,10.1224
2019-05-03T05:46:18.324Z,10.1526
2019-05-03T05:47:20.324Z,10.1727
2019-05-03T05:48:24.636Z,10.1929
2019-05-03T05:49:27.371Z,10.1929
2019-05-03T05:50:30.314Z,10.2029
2019-05-03T05:51:35.206Z,10.2231
2019-05-03T05:52:38.260Z,10.2533
2019-05-03T05:53:41.335Z,10.2533
2019-05-03T05:54:45.620Z,10.2533
2019-05-03T05:55:49.292Z,10.2835
2019-05-03T05:56:52.318Z,10.3036
2019-05-03T05:58:03.002Z,10.3036
2019-05-03T05:59:04.483Z,10.2533
2019-05-03T06:00:08.342Z,10.2029
2019-05-03T06:01:11.330Z,10.1929
2019-05-03T06:02:15.063Z,10.1727
2019-05-03T06:03:18.354Z,10.1929
2019-05-03T06:04:21.302Z,10.2231
2019-05-03T06:05:25.227Z,10.2332
2019-05-03T06:06:28.332Z,10.2533
2019-05-03T06:07:31.387Z,10.2835
2019-05-03T06:08:35.434Z,10.2835
2019-05-03T06:09:38.289Z,10.3036
2019-05-03T06:10:41.325Z,10.3137
2019-05-03T06:11:45.038Z,10.3137
2019-05-03T06:12:48.359Z,10.3036
2019-05-03T06:13:51.304Z,10.3137
2019-05-03T06:14:54.498Z,10.3439
2019-05-03T06:15:58.329Z,10.3439
2019-05-03T06:17:01.350Z,10.3741
2019-05-03T06:18:05.755Z,10.3842
2019-05-03T06:19:09.290Z,10.4144
2019-05-03T06:20:12.383Z,10.4245
2019-05-03T06:21:15.322Z,10.4446
2019-05-03T06:22:18.358Z,10.4849
2019-05-03T06:23:21.289Z,10.4849
2019-05-03T06:24:24.939Z,10.5051
2019-05-03T06:25:28.366Z,10.5252
2019-05-03T06:26:31.365Z,10.5655
2019-05-03T06:27:34.702Z,10.5957
2019-05-03T06:28:37.334Z,10.6662
2019-05-03T06:29:40.290Z,10.6863
2019-05-03T06:30:45.315Z,10.7065
2019-05-03T06:31:49.341Z,10.7065
2019-05-03T06:32:52.313Z,10.7065
2019-05-03T06:33:55.420Z,10.7065
2019-05-03T06:34:58.297Z,10.6863
2019-05-03T06:36:01.309Z,10.6863
2019-05-03T06:37:04.559Z,10.7367
2019-05-03T06:38:07.365Z,10.7770
2019-05-03T06:39:10.310Z,10.8173
2019-05-03T06:40:14.953Z,10.8374
2019-05-03T06:41:18.288Z,10.8374
2019-05-03T06:42:22.878Z,10.8072
2019-05-03T06:43:26.310Z,10.7870
2019-05-03T06:44:30.345Z,10.7870
2019-05-03T06:45:35.242Z,10.7770
2019-05-03T06:46:38.329Z,10.7770
2019-05-03T06:47:46.061Z,10.7870
2019-05-03T06:48:49.324Z,10.7870
2019-05-03T06:49:52.325Z,10.8374
2019-05-03T06:50:55.790Z,10.8575
2019-05-03T06:52:00.300Z,10.8374
2019-05-03T06:53:05.817Z,10.8173
2019-05-03T06:54:11.299Z,10.8072
2019-05-03T06:55:14.618Z,10.7870
2019-05-03T06:56:19.220Z,10.7870
2019-05-03T06:57:26.360Z,10.8072
2019-05-03T06:58:33.136Z,10.8374
2019-05-03T06:59:37.321Z,10.8374
2019-05-03T07:00:40.278Z,10.8575
2019-05-03T07:01:42.326Z,10.8676
2019-05-03T07:02:45.333Z,10.8878
2019-05-03T07:03:48.325Z,10.8978
2019-05-03T07:04:51.341Z,10.9180
2019-05-03T07:05:54.889Z,10.9381
2019-05-03T07:06:58.324Z,10.9583
2019-05-03T07:08:01.337Z,10.9885
2019-05-03T07:09:05.345Z,10.9683
2019-05-03T07:10:08.330Z,10.9985
2019-05-03T07:11:11.325Z,10.9985
2019-05-03T07:12:14.887Z,10.9985
2019-05-03T07:13:18.312Z,10.9583
2019-05-03T07:14:21.362Z,10.9381
2019-05-03T07:15:25.139Z,10.9381
2019-05-03T07:16:28.317Z,10.9180
2019-05-03T07:17:31.313Z,10.8978
2019-05-03T07:18:35.157Z,10.8978
2019-05-03T07:19:38.338Z,10.8878
2019-05-03T07:20:41.278Z,10.8978
2019-05-03T07:21:44.712Z,10.8978
2019-05-03T07:22:48.334Z,10.9280
2019-05-03T07:23:51.318Z,10.9381
2019-05-03T07:24:54.617Z,10.9683
2019-05-03T07:25:58.320Z,10.9683
2019-05-03T07:27:02.317Z,11.0187
2019-05-03T07:28:05.308Z,11.0489
2019-05-03T07:29:08.284Z,11.0690
2019-05-03T07:30:11.372Z,11.0489
2019-05-03T07:31:15.071Z,11.0690
2019-05-03T07:32:18.318Z,11.0489
2019-05-03T07:33:21.292Z,10.9985
2019-05-03T07:34:24.743Z,10.9985
2019-05-03T07:35:28.383Z,10.9885
2019-05-03T07:36:35.388Z,10.9583
2019-05-03T07:37:38.357Z,10.9583
2019-05-03T07:38:40.326Z,10.9683
2019-05-03T07:39:45.144Z,10.9885
2019-05-03T07:40:48.313Z,11.0187
2019-05-03T07:41:51.333Z,11.0187
2019-05-03T07:42:55.520Z,11.0489
2019-05-03T07:43:59.320Z,11.0489
2019-05-03T07:45:04.974Z,11.0690
2019-05-03T07:46:08.369Z,11.0791
2019-05-03T07:47:11.297Z,11.0992
2019-05-03T07:48:15.042Z,11.1093
2019-05-03T07:49:18.322Z,11.1093
2019-05-03T07:50:21.291Z,11.1093
2019-05-03T07:51:24.880Z,11.0992
2019-05-03T07:52:28.377Z,11.0791
2019-05-03T07:53:31.289Z,11.0690
2019-05-03T07:54:34.857Z,11.0489
2019-05-03T07:55:38.301Z,11.0690
2019-05-03T07:56:41.368Z,11.0690
2019-05-03T07:57:45.308Z,11.0489
2019-05-03T07:58:59.290Z,11.0388
2019-05-03T07:59:56.292Z,11.0489
2019-05-03T08:01:06.178Z,11.0791
2019-05-03T08:02:07.361Z,11.0992
2019-05-03T08:03:10.346Z,11.0791
2019-05-03T08:04:15.272Z,11.0791
2019-05-03T08:05:18.329Z,11.0489
2019-05-03T08:06:21.296Z,11.0187
2019-05-03T08:07:25.778Z,10.9683
2019-05-03T08:08:29.330Z,10.9280
2019-05-03T08:09:32.315Z,10.9180
2019-05-03T08:10:34.563Z,10.9381
2019-05-03T08:11:37.334Z,10.9381
2019-05-03T08:12:40.357Z,10.9381
2019-05-03T08:13:44.643Z,10.9180
2019-05-03T08:14:48.324Z,10.8878
2019-05-03T08:15:51.287Z,10.8374
2019-05-03T08:16:54.769Z,10.8072
2019-05-03T08:17:58.338Z,10.7870
2019-05-03T08:19:01.319Z,10.7770
2019-05-03T08:20:05.272Z,10.8072
2019-05-03T08:21:08.327Z,10.8072
2019-05-03T08:22:11.284Z,10.8072
2019-05-03T08:23:26.409Z,10.8575
2019-05-03T08:24:22.331Z,10.8878
2019-05-03T08:25:25.295Z,10.8878
2019-05-03T08:26:28.305Z,10.8978
2019-05-03T08:27:31.363Z,10.9180
2019-05-03T08:28:34.681Z,10.9180
2019-05-03T08:29:38.341Z,10.9180
2019-05-03T08:30:41.311Z,10.8978
2019-05-03T08:31:45.438Z,10.8676
2019-05-03T08:32:48.312Z,10.8676
2019-05-03T08:33:51.347Z,10.8878
2019-05-03T08:34:55.603Z,10.8878
2019-05-03T08:35:59.300Z,10.8878
2019-05-03T08:37:02.305Z,10.9180
2019-05-03T08:38:05.288Z,10.9280
2019-05-03T08:39:08.358Z,10.9280
2019-05-03T08:40:11.329Z,10.9583
2019-05-03T08:41:14.531Z,10.9583
2019-05-03T08:42:17.294Z,10.9583
2019-05-03T08:43:20.320Z,10.9381
2019-05-03T08:44:25.039Z,10.9180
2019-05-03T08:45:28.332Z,10.8978
2019-05-03T08:46:31.306Z,10.8676
2019-05-03T08:47:34.540Z,10.8878
2019-05-03T08:48:37.271Z,10.8878
2019-05-03T08:49:39.343Z,10.8878
2019-05-03T08:50:42.325Z,10.8878
2019-05-03T08:51:45.338Z,10.8878
2019-05-03T08:52:48.307Z,10.8878
2019-05-03T08:53:51.310Z,10.8676
2019-05-03T08:54:55.020Z,10.8878
2019-05-03T08:55:58.295Z,10.8978
2019-05-03T08:57:01.356Z,10.9180
2019-05-03T08:58:05.207Z,10.9381
2019-05-03T08:59:08.327Z,10.9381
2019-05-03T09:00:11.312Z,10.9381
2019-05-03T09:01:14.834Z,10.9180
2019-05-03T09:02:18.732Z,10.8978
2019-05-03T09:03:22.368Z,10.8878
2019-05-03T09:04:36.168Z,10.8878
2019-05-03T09:05:35.809Z,10.8978
2019-05-03T09:06:39.330Z,10.9180
2019-05-03T09:07:44.626Z,10.9180
2019-05-03T09:08:47.361Z,10.9280
2019-05-03T09:09:50.322Z,10.9381
2019-05-03T09:10:54.556Z,10.9583
2019-05-03T09:11:58.321Z,10.9683
2019-05-03T09:13:03.522Z,10.9885
2019-05-03T09:14:09.293Z,11.0388
2019-05-03T09:15:12.339Z,11.0690
2019-05-03T09:16:15.340Z,11.0690
2019-05-03T09:17:19.309Z,10.9885
2019-05-03T09:18:22.316Z,10.9885
2019-05-03T09:19:26.273Z,10.9683
2019-05-03T09:20:32.279Z,10.9885
2019-05-03T09:21:36.328Z,10.9885
2019-05-03T09:22:39.329Z,10.9683
2019-05-03T09:23:42.305Z,10.9381
2019-05-03T09:24:46.316Z,10.9280
2019-05-03T09:25:49.325Z,10.9381
2019-05-03T09:26:55.412Z,10.9583
2019-05-03T09:27:59.329Z,10.9985
2019-05-03T09:29:05.375Z,11.0388
2019-05-03T09:30:09.294Z,11.0690
2019-05-03T09:31:12.302Z,11.0791
2019-05-03T09:32:16.340Z,11.1093
2019-05-03T09:33:19.314Z,11.1395
2019-05-03T09:34:25.538Z,11.1697
2019-05-03T09:35:33.050Z,11.1899
2019-05-03T09:36:37.315Z,11.2503
2019-05-03T09:37:40.329Z,11.2906
2019-05-03T09:38:45.545Z,11.3007
2019-05-03T09:39:49.272Z,11.3611
2019-05-03T09:40:54.445Z,11.4014
2019-05-03T09:41:58.311Z,11.4417
2019-05-03T09:43:01.336Z,11.4819
2019-05-03T09:44:05.336Z,11.5222
2019-05-03T09:45:08.327Z,11.5222
2019-05-03T09:46:11.320Z,11.5424
2019-05-03T09:47:15.298Z,11.6229
2019-05-03T09:48:18.371Z,11.6934
2019-05-03T09:49:22.299Z,11.7337
2019-05-03T09:50:25.338Z,11.7740
2019-05-03T09:51:29.311Z,11.7841
2019-05-03T09:52:32.290Z,11.8445
2019-05-03T09:53:35.358Z,11.9049
2019-05-03T09:54:39.325Z,11.9955
2019-05-03T09:55:42.387Z,12.0358
2019-05-03T09:56:55.270Z,12.1265
2019-05-03T09:57:55.543Z,12.2372
2019-05-03T09:58:59.357Z,12.3581
2019-05-03T10:00:04.762Z,12.4487
2019-05-03T10:01:08.558Z,12.5293
2019-05-03T10:02:12.309Z,12.5998
2019-05-03T10:03:15.308Z,12.6099
2019-05-03T10:04:19.322Z,12.5998
2019-05-03T10:05:22.398Z,12.6099
2019-05-03T10:06:26.311Z,12.6401
2019-05-03T10:07:29.318Z,12.7005
2019-05-03T10:08:32.303Z,12.7509
2019-05-03T10:09:36.361Z,12.8012
2019-05-03T10:10:39.296Z,12.8717
2019-05-03T10:11:45.644Z,12.9422
2019-05-03T10:12:49.291Z,12.9422
2019-05-03T10:13:56.322Z,12.9523
2019-05-03T10:14:59.297Z,13.0026
2019-05-03T10:16:02.286Z,13.0530
2019-05-03T10:17:06.343Z,13.0933
2019-05-03T10:18:11.110Z,13.1235
2019-05-03T10:19:16.217Z,13.1638
2019-05-03T10:20:19.348Z,13.2040
2019-05-03T10:21:25.704Z,13.2544
2019-05-03T10:22:29.308Z,13.2040
2019-05-03T10:23:32.320Z,13.2544
2019-05-03T10:24:36.297Z,13.3047
2019-05-03T10:25:40.386Z,13.3148
2019-05-03T10:26:45.580Z,13.3450
2019-05-03T10:27:49.300Z,13.3450
2019-05-03T10:28:55.045Z,13.3853
2019-05-03T10:30:10.619Z,13.4357
2019-05-03T10:31:07.907Z,13.4860
2019-05-03T10:32:12.331Z,13.4961
2019-05-03T10:33:15.575Z,13.5364
2019-05-03T10:34:18.314Z,13.6169
2019-05-03T10:35:21.357Z,13.6169
2019-05-03T10:36:25.323Z,13.5968
2019-05-03T10:37:28.330Z,13.5565
2019-05-03T10:38:31.295Z,13.5162
2019-05-03T10:39:36.223Z,13.4860
2019-05-03T10:40:40.320Z,13.4860
2019-05-03T10:41:45.357Z,13.4860
2019-05-03T10:42:49.343Z,13.4659
2019-05-03T10:43:55.472Z,13.4558
2019-05-03T10:44:59.326Z,13.4558
2019-05-03T10:46:02.311Z,13.4860
2019-05-03T10:47:06.365Z,13.5162
2019-05-03T10:48:09.287Z,13.5565
2019-05-03T10:49:15.166Z,13.5666
2019-05-03T10:50:18.318Z,13.5666
2019-05-03T10:51:22.297Z,13.5263
2019-05-03T10:52:25.822Z,13.4357
2019-05-03T10:53:29.295Z,13.3652
2019-05-03T10:54:35.583Z,13.3148
2019-05-03T10:55:39.312Z,13.2040
2019-05-03T10:56:45.254Z,13.1235
2019-05-03T10:57:48.339Z,13.0530
2019-05-03T10:58:54.774Z,13.0026
2019-05-03T10:59:58.305Z,12.9724
2019-05-03T11:01:01.330Z,12.9422
2019-05-03T11:02:05.295Z,12.9321
2019-05-03T11:03:08.322Z,12.8717
2019-05-03T11:04:12.330Z,12.8314
2019-05-03T11:05:15.331Z,12.7509
2019-05-03T11:06:19.309Z,12.6501
2019-05-03T11:07:22.289Z,12.5394
2019-05-03T11:08:25.346Z,12.3984
2019-05-03T11:09:29.375Z,12.2876
2019-05-03T11:10:31.348Z,12.2171
2019-05-03T11:11:35.419Z,12.1667
2019-05-03T11:12:38.296Z,12.1667
2019-05-03T11:13:42.337Z,12.1265
2019-05-03T11:14:45.636Z,12.1265
2019-05-03T11:15:49.304Z,12.1466
2019-05-03T11:16:55.135Z,12.1265
2019-05-03T11:17:58.320Z,12.1265
2019-05-03T11:19:02.330Z,12.1667
2019-05-03T11:20:05.376Z,12.1667
2019-05-03T11:21:09.328Z,12.1667
2019-05-03T11:22:14.459Z,12.1970
2019-05-03T11:23:18.292Z,12.2372
2019-05-03T11:24:25.069Z,12.2775
2019-05-03T11:25:30.309Z,12.3581
2019-05-03T11:26:34.954Z,12.3883
2019-05-03T11:27:38.350Z,12.4286
2019-05-03T11:28:42.301Z,12.5394
2019-05-03T11:29:45.387Z,12.6501
2019-05-03T11:30:56.380Z,12.7911
2019-05-03T11:31:56.341Z,12.9523
2019-05-03T11:32:59.298Z,13.0933
2019-05-03T11:34:03.327Z,13.2040
2019-05-03T11:35:06.330Z,13.2745
2019-05-03T11:36:10.360Z,13.2846
2019-05-03T11:37:14.552Z,13.2544
2019-05-03T11:38:18.385Z,13.2040
2019-05-03T11:39:22.316Z,13.1537
2019-05-03T11:40:25.310Z,13.0832
2019-05-03T11:41:32.640Z,13.0429
2019-05-03T11:42:36.310Z,13.0429
2019-05-03T11:43:40.332Z,13.0328
2019-05-03T11:44:44.629Z,12.9724
2019-05-03T11:45:49.406Z,12.9019
2019-05-03T11:46:55.093Z,12.7609
2019-05-03T11:47:58.297Z,12.6199
2019-05-03T11:49:02.295Z,12.4991
2019-05-03T11:50:05.303Z,12.3682
2019-05-03T11:51:09.316Z,12.2876
2019-05-03T11:52:12.299Z,12.2473
2019-05-03T11:53:15.316Z,12.2775
2019-05-03T11:54:21.309Z,12.2775
2019-05-03T11:55:26.797Z,12.3480
2019-05-03T11:56:29.307Z,12.4286
2019-05-03T11:57:32.292Z,12.5797
2019-05-03T11:58:36.299Z,12.8717
2019-05-03T11:59:39.319Z,13.1839
2019-05-03T12:00:42.344Z,13.4558
2019-05-03T12:01:45.329Z,13.6975
2019-05-03T12:02:48.339Z,13.9291
2019-05-03T12:03:52.268Z,14.1406
2019-05-03T12:04:55.406Z,14.3320
2019-05-03T12:05:58.353Z,14.4327
2019-05-03T12:07:01.331Z,14.4528
2019-05-03T12:08:05.416Z,14.4730
2019-05-03T12:09:09.290Z,14.5132
2019-05-03T12:10:28.301Z,14.5435
2019-05-03T12:11:20.348Z,14.5837
2019-05-03T12:12:24.504Z,14.6643
2019-05-03T12:13:28.306Z,14.8154
2019-05-03T12:14:31.330Z,14.9161
2019-05-03T12:15:35.234Z,15.2182
2019-05-03T12:17:12.221Z,15.4901
2019-05-03T12:17:53.956Z,15.7620
2019-05-03T12:18:55.807Z,16.0944
2019-05-03T12:20:00.762Z,16.2253
2019-05-03T12:21:08.266Z,16.3159
2019-05-03T12:22:14.242Z,16.4066
2019-05-03T12:23:20.671Z,16.4166
2019-05-03T12:24:26.727Z,16.4066
2019-05-03T12:25:30.932Z,16.4267
2019-05-03T12:26:41.773Z,16.4166
2019-05-03T12:27:43.990Z,16.3058
2019-05-03T12:28:48.321Z,16.2253
2019-05-03T12:29:52.485Z,16.1044
2019-05-03T12:30:56.343Z,15.9735
2019-05-03T12:32:00.316Z,15.8627
2019-05-03T12:33:05.697Z,15.8023
2019-05-03T12:34:09.277Z,15.7922
2019-05-03T12:35:12.353Z,15.8023
2019-05-03T12:36:16.352Z,15.8627
2019-05-03T12:37:19.307Z,15.9534
2019-05-03T12:38:22.345Z,16.0541
2019-05-03T12:39:30.435Z,16.1346
2019-05-03T12:40:34.956Z,16.1749
2019-05-03T12:41:38.296Z,16.1548
2019-05-03T12:42:41.327Z,16.1346
2019-05-03T12:43:45.340Z,16.1246
2019-05-03T12:44:47.350Z,16.0440
2019-05-03T12:45:50.312Z,15.9131
2019-05-03T12:46:54.282Z,15.7016
2019-05-03T12:47:57.335Z,15.5203
2019-05-03T12:49:01.416Z,15.3491
2019-05-03T12:50:05.338Z,15.2081
2019-05-03T12:51:09.632Z,15.0671
2019-05-03T12:52:15.566Z,14.9664
2019-05-03T12:53:21.917Z,14.8557
2019-05-03T12:54:25.377Z,14.7348
2019-05-03T12:55:28.298Z,14.6542
2019-05-03T12:56:33.574Z,14.5535